sensor_id;sensor_type;location;lat;lon;timestamp;pressure;altitude;pressure_sealevel;temperature
73894;BMP280;62699;50.534;12.784;2024-03-23T00:57:14;95504.97;;;7.33
73894;BMP280;62699;50.534;12.784;2024-03-23T01:02:14;95505.94;;;7.35
73894;BMP280;62699;50.534;12.784;2024-03-23T01:07:15;95486.72;;;7.42
73894;BMP280;62699;50.534;12.784;2024-03-23T01:12:15;95478.91;;;7.44
73894;BMP280;62699;50.534;12.784;2024-03-23T01:17:15;95466.75;;;7.43
73894;BMP280;62699;50.534;12.784;2024-03-23T01:22:15;95458.50;;;7.41
73894;BMP280;62699;50.534;12.784;2024-03-23T01:27:16;95459.47;;;7.38
73894;BMP280;62699;50.534;12.784;2024-03-23T01:32:16;95434.91;;;7.40
73894;BMP280;62699;50.534;12.784;2024-03-23T01:37:16;95423.41;;;7.45
73894;BMP280;62699;50.534;12.784;2024-03-23T01:42:16;95418.53;;;7.43
73894;BMP280;62699;50.534;12.784;2024-03-23T01:47:17;95411.78;;;7.31
73894;BMP280;62699;50.534;12.784;2024-03-23T01:52:17;95412.50;;;7.37
73894;BMP280;62699;50.534;12.784;2024-03-23T01:57:17;95413.72;;;7.25
73894;BMP280;62699;50.534;12.784;2024-03-23T02:02:18;95411.81;;;7.20
73894;BMP280;62699;50.534;12.784;2024-03-23T02:07:20;95400.63;;;7.16
73894;BMP280;62699;50.534;12.784;2024-03-23T02:12:20;95396.97;;;7.08
73894;BMP280;62699;50.534;12.784;2024-03-23T02:17:21;95383.88;;;6.99
73894;BMP280;62699;50.534;12.784;2024-03-23T02:22:21;95380.47;;;6.87
73894;BMP280;62699;50.534;12.784;2024-03-23T02:27:22;95371.97;;;6.89
73894;BMP280;62699;50.534;12.784;2024-03-23T02:32:22;95370.03;;;6.89
73894;BMP280;62699;50.534;12.784;2024-03-23T02:37:22;95361.47;;;6.96
73894;BMP280;62699;50.534;12.784;2024-03-23T02:42:22;95368.78;;;7.07
73894;BMP280;62699;50.534;12.784;2024-03-23T02:47:23;95335.41;;;7.14
73894;BMP280;62699;50.534;12.784;2024-03-23T02:52:23;95342.22;;;7.15
73894;BMP280;62699;50.534;12.784;2024-03-23T02:57:23;95330.03;;;7.19
73894;BMP280;62699;50.534;12.784;2024-03-23T03:02:24;95309.88;;;7.13
73894;BMP280;62699;50.534;12.784;2024-03-23T03:07:24;95309.94;;;7.01
73894;BMP280;62699;50.534;12.784;2024-03-23T03:12:24;95308.47;;;7.00
73894;BMP280;62699;50.534;12.784;2024-03-23T03:17:25;95301.19;;;6.90
73894;BMP280;62699;50.534;12.784;2024-03-23T03:22:25;95294.66;;;6.80
73894;BMP280;62699;50.534;12.784;2024-03-23T03:27:25;95290.28;;;6.77
73894;BMP280;62699;50.534;12.784;2024-03-23T03:32:26;95279.03;;;6.95
73894;BMP280;62699;50.534;12.784;2024-03-23T03:37:26;95273.66;;;6.95
73894;BMP280;62699;50.534;12.784;2024-03-23T03:42:26;95274.00;;;6.63
73894;BMP280;62699;50.534;12.784;2024-03-23T03:47:26;95271.13;;;6.50
73894;BMP280;62699;50.534;12.784;2024-03-23T03:52:27;95267.00;;;6.38
73894;BMP280;62699;50.534;12.784;2024-03-23T03:57:27;95262.09;;;6.31
73894;BMP280;62699;50.534;12.784;2024-03-23T04:02:27;95253.13;;;6.51
73894;BMP280;62699;50.534;12.784;2024-03-23T04:07:27;95235.13;;;6.57
73894;BMP280;62699;50.534;12.784;2024-03-23T04:12:28;95222.78;;;6.37
73894;BMP280;62699;50.534;12.784;2024-03-23T04:17:28;95209.38;;;6.32
73894;BMP280;62699;50.534;12.784;2024-03-23T04:22:31;95202.16;;;6.15
73894;BMP280;62699;50.534;12.784;2024-03-23T04:27:33;95173.22;;;6.03
73894;BMP280;62699;50.534;12.784;2024-03-23T04:32:33;95150.19;;;5.94
73894;BMP280;62699;50.534;12.784;2024-03-23T04:37:33;95140.00;;;5.98
73894;BMP280;62699;50.534;12.784;2024-03-23T04:42:34;95137.28;;;6.04
73894;BMP280;62699;50.534;12.784;2024-03-23T04:47:34;95138.50;;;6.19
73894;BMP280;62699;50.534;12.784;2024-03-23T04:52:35;95142.59;;;6.37
73894;BMP280;62699;50.534;12.784;2024-03-23T04:57:36;95127.94;;;6.60
73894;BMP280;62699;50.534;12.784;2024-03-23T05:02:36;95113.28;;;6.73
73894;BMP280;62699;50.534;12.784;2024-03-23T05:07:36;95100.88;;;6.81
73894;BMP280;62699;50.534;12.784;2024-03-23T05:12:37;95094.72;;;6.86
73894;BMP280;62699;50.534;12.784;2024-03-23T05:17:38;95084.25;;;6.93
73894;BMP280;62699;50.534;12.784;2024-03-23T05:22:39;95075.66;;;7.06
73894;BMP280;62699;50.534;12.784;2024-03-23T05:27:40;95082.69;;;7.09
73894;BMP280;62699;50.534;12.784;2024-03-23T05:32:40;95072.59;;;7.26
73894;BMP280;62699;50.534;12.784;2024-03-23T05:37:41;95056.69;;;7.39
73894;BMP280;62699;50.534;12.784;2024-03-23T05:42:42;95049.03;;;7.49
73894;BMP280;62699;50.534;12.784;2024-03-23T05:47:42;95063.06;;;7.61
73894;BMP280;62699;50.534;12.784;2024-03-23T05:52:42;95066.88;;;7.71
73894;BMP280;62699;50.534;12.784;2024-03-23T05:57:43;95068.53;;;7.74
73894;BMP280;62699;50.534;12.784;2024-03-23T06:02:44;95060.50;;;7.74
73894;BMP280;62699;50.534;12.784;2024-03-23T06:07:44;95041.06;;;7.68
73894;BMP280;62699;50.534;12.784;2024-03-23T06:12:48;95049.88;;;7.63
73894;BMP280;62699;50.534;12.784;2024-03-23T06:17:49;95038.63;;;7.70
73894;BMP280;62699;50.534;12.784;2024-03-23T06:22:49;95017.63;;;7.74
73894;BMP280;62699;50.534;12.784;2024-03-23T06:27:52;95013.09;;;7.87
73894;BMP280;62699;50.534;12.784;2024-03-23T06:32:53;95006.25;;;7.92
73894;BMP280;62699;50.534;12.784;2024-03-23T06:37:53;94989.53;;;8.23
73894;BMP280;62699;50.534;12.784;2024-03-23T06:42:53;94979.38;;;8.35
73894;BMP280;62699;50.534;12.784;2024-03-23T06:47:54;94969.47;;;8.49
73894;BMP280;62699;50.534;12.784;2024-03-23T06:52:55;94963.75;;;8.71
73894;BMP280;62699;50.534;12.784;2024-03-23T06:57:55;94953.28;;;8.86
73894;BMP280;62699;50.534;12.784;2024-03-23T07:02:56;94949.59;;;9.02
73894;BMP280;62699;50.534;12.784;2024-03-23T07:07:56;94945.69;;;9.16
73894;BMP280;62699;50.534;12.784;2024-03-23T07:12:56;94947.38;;;9.33
73894;BMP280;62699;50.534;12.784;2024-03-23T07:17:57;94938.91;;;9.55
73894;BMP280;62699;50.534;12.784;2024-03-23T07:22:57;94913.00;;;9.78
73894;BMP280;62699;50.534;12.784;2024-03-23T07:27:57;94900.03;;;10.03
73894;BMP280;62699;50.534;12.784;2024-03-23T07:32:58;94897.91;;;10.43
73894;BMP280;62699;50.534;12.784;2024-03-23T07:37:58;94891.28;;;10.65
73894;BMP280;62699;50.534;12.784;2024-03-23T07:43:05;94900.16;;;11.09
73894;BMP280;62699;50.534;12.784;2024-03-23T07:48:05;94916.59;;;13.04
73894;BMP280;62699;50.534;12.784;2024-03-23T07:53:06;94900.19;;;13.97
73894;BMP280;62699;50.534;12.784;2024-03-23T07:58:06;94890.03;;;13.32
73894;BMP280;62699;50.534;12.784;2024-03-23T08:03:07;94896.66;;;12.69
73894;BMP280;62699;50.534;12.784;2024-03-23T08:08:07;94897.31;;;12.01
73894;BMP280;62699;50.534;12.784;2024-03-23T08:13:07;94897.19;;;11.56
73894;BMP280;62699;50.534;12.784;2024-03-23T08:18:07;94902.44;;;11.25
73894;BMP280;62699;50.534;12.784;2024-03-23T08:23:08;94900.88;;;11.09
73894;BMP280;62699;50.534;12.784;2024-03-23T08:28:08;94899.69;;;10.89
73894;BMP280;62699;50.534;12.784;2024-03-23T08:33:09;94904.09;;;10.79
73894;BMP280;62699;50.534;12.784;2024-03-23T08:38:09;94909.84;;;10.55
73894;BMP280;62699;50.534;12.784;2024-03-23T08:43:09;94912.75;;;10.57
73894;BMP280;62699;50.534;12.784;2024-03-23T08:48:09;94907.97;;;10.50
73894;BMP280;62699;50.534;12.784;2024-03-23T08:53:09;94947.22;;;10.25
73894;BMP280;62699;50.534;12.784;2024-03-23T08:58:10;94960.34;;;9.68
73894;BMP280;62699;50.534;12.784;2024-03-23T09:03:10;94972.53;;;9.56
73894;BMP280;62699;50.534;12.784;2024-03-23T09:08:10;94974.91;;;9.46
73894;BMP280;62699;50.534;12.784;2024-03-23T09:13:11;94987.84;;;9.61
73894;BMP280;62699;50.534;12.784;2024-03-23T09:18:11;94995.09;;;9.53
73894;BMP280;62699;50.534;12.784;2024-03-23T09:23:11;95028.50;;;9.12
73894;BMP280;62699;50.534;12.784;2024-03-23T09:28:11;95096.59;;;8.77
73894;BMP280;62699;50.534;12.784;2024-03-23T09:33:12;95125.81;;;7.00
73894;BMP280;62699;50.534;12.784;2024-03-23T09:38:13;95179.09;;;5.57
73894;BMP280;62699;50.534;12.784;2024-03-23T09:43:13;95211.59;;;4.85
73894;BMP280;62699;50.534;12.784;2024-03-23T09:48:16;95250.16;;;4.47
73894;BMP280;62699;50.534;12.784;2024-03-23T09:53:17;95265.81;;;4.34
73894;BMP280;62699;50.534;12.784;2024-03-23T09:58:18;95283.66;;;4.28
73894;BMP280;62699;50.534;12.784;2024-03-23T10:03:18;95289.13;;;4.18
73894;BMP280;62699;50.534;12.784;2024-03-23T10:08:18;95303.84;;;4.40
73894;BMP280;62699;50.534;12.784;2024-03-23T10:13:26;95329.75;;;4.39
73894;BMP280;62699;50.534;12.784;2024-03-23T10:18:27;95336.34;;;4.44
73894;BMP280;62699;50.534;12.784;2024-03-23T10:23:28;95347.00;;;4.44
73894;BMP280;62699;50.534;12.784;2024-03-23T10:28:28;95367.59;;;4.43
73894;BMP280;62699;50.534;12.784;2024-03-23T10:33:29;95359.78;;;4.34
73894;BMP280;62699;50.534;12.784;2024-03-23T10:38:31;95358.34;;;4.39
73894;BMP280;62699;50.534;12.784;2024-03-23T10:43:32;95375.78;;;4.40
73894;BMP280;62699;50.534;12.784;2024-03-23T10:48:33;95375.56;;;4.69
73894;BMP280;62699;50.534;12.784;2024-03-23T10:53:34;95382.44;;;4.50
73894;BMP280;62699;50.534;12.784;2024-03-23T10:58:39;95391.44;;;4.52
73894;BMP280;62699;50.534;12.784;2024-03-23T11:03:45;95390.84;;;4.43
73894;BMP280;62699;50.534;12.784;2024-03-23T11:08:45;95397.50;;;4.58
73894;BMP280;62699;50.534;12.784;2024-03-23T11:13:51;95394.75;;;4.73
73894;BMP280;62699;50.534;12.784;2024-03-23T11:18:51;95405.16;;;4.71
73894;BMP280;62699;50.534;12.784;2024-03-23T11:23:52;95404.66;;;4.67
73894;BMP280;62699;50.534;12.784;2024-03-23T11:29:09;95393.25;;;4.67
73894;BMP280;62699;50.534;12.784;2024-03-23T11:34:12;95401.44;;;4.63
73894;BMP280;62699;50.534;12.784;2024-03-23T11:39:14;95397.63;;;4.70
73894;BMP280;62699;50.534;12.784;2024-03-23T11:44:23;95391.25;;;4.61
73894;BMP280;62699;50.534;12.784;2024-03-23T11:49:26;95407.25;;;4.61
73894;BMP280;62699;50.534;12.784;2024-03-23T11:54:27;95409.44;;;4.63
73894;BMP280;62699;50.534;12.784;2024-03-23T11:59:37;95423.81;;;4.71
73894;BMP280;62699;50.534;12.784;2024-03-23T12:04:38;95402.75;;;4.73
73894;BMP280;62699;50.534;12.784;2024-03-23T12:09:40;95415.63;;;4.80
73894;BMP280;62699;50.534;12.784;2024-03-23T12:14:45;95436.31;;;4.85
73894;BMP280;62699;50.534;12.784;2024-03-23T12:19:46;95439.16;;;4.82
73894;BMP280;62699;50.534;12.784;2024-03-23T12:24:46;95450.28;;;4.80
73894;BMP280;62699;50.534;12.784;2024-03-23T12:29:46;95454.97;;;4.85
73894;BMP280;62699;50.534;12.784;2024-03-23T12:34:47;95465.91;;;4.87
73894;BMP280;62699;50.534;12.784;2024-03-23T12:39:47;95454.63;;;5.03
73894;BMP280;62699;50.534;12.784;2024-03-23T12:44:47;95445.59;;;5.69
73894;BMP280;62699;50.534;12.784;2024-03-23T12:49:48;95434.63;;;6.32
73894;BMP280;62699;50.534;12.784;2024-03-23T12:54:49;95417.88;;;6.37
73894;BMP280;62699;50.534;12.784;2024-03-23T12:59:51;95416.94;;;6.40
73894;BMP280;62699;50.534;12.784;2024-03-23T13:04:53;95440.31;;;6.90
73894;BMP280;62699;50.534;12.784;2024-03-23T13:09:53;95434.69;;;7.04
73894;BMP280;62699;50.534;12.784;2024-03-23T13:14:53;95432.97;;;6.85
73894;BMP280;62699;50.534;12.784;2024-03-23T13:19:54;95432.50;;;7.03
73894;BMP280;62699;50.534;12.784;2024-03-23T13:24:55;95438.34;;;6.96
73894;BMP280;62699;50.534;12.784;2024-03-23T13:29:55;95431.78;;;6.69
73894;BMP280;62699;50.534;12.784;2024-03-23T13:34:56;95436.16;;;6.89
73894;BMP280;62699;50.534;12.784;2024-03-23T13:39:56;95426.41;;;7.08
73894;BMP280;62699;50.534;12.784;2024-03-23T13:44:56;95412.31;;;7.02
73894;BMP280;62699;50.534;12.784;2024-03-23T13:49:56;95401.97;;;7.62
73894;BMP280;62699;50.534;12.784;2024-03-23T13:54:56;95401.03;;;7.42
73894;BMP280;62699;50.534;12.784;2024-03-23T13:59:57;95412.75;;;7.39
73894;BMP280;62699;50.534;12.784;2024-03-23T14:04:57;95398.59;;;7.44
73894;BMP280;62699;50.534;12.784;2024-03-23T14:10:02;95415.34;;;7.56
73894;BMP280;62699;50.534;12.784;2024-03-23T14:15:06;95416.56;;;7.55
73894;BMP280;62699;50.534;12.784;2024-03-23T14:20:07;95399.81;;;8.01
73894;BMP280;62699;50.534;12.784;2024-03-23T14:25:11;95397.78;;;8.18
73894;BMP280;62699;50.534;12.784;2024-03-23T14:30:11;95394.94;;;8.05
73894;BMP280;62699;50.534;12.784;2024-03-23T14:35:12;95406.13;;;8.45
73894;BMP280;62699;50.534;12.784;2024-03-23T14:40:12;95395.66;;;8.06
73894;BMP280;62699;50.534;12.784;2024-03-23T14:45:13;95401.38;;;7.80
73894;BMP280;62699;50.534;12.784;2024-03-23T14:50:15;95401.34;;;7.91
73894;BMP280;62699;50.534;12.784;2024-03-23T14:55:16;95384.63;;;7.68
73894;BMP280;62699;50.534;12.784;2024-03-23T15:00:17;95376.72;;;7.98
73894;BMP280;62699;50.534;12.784;2024-03-23T15:05:18;95368.28;;;7.83
73894;BMP280;62699;50.534;12.784;2024-03-23T15:10:18;95378.50;;;7.79
73894;BMP280;62699;50.534;12.784;2024-03-23T15:15:19;95377.56;;;7.71
73894;BMP280;62699;50.534;12.784;2024-03-23T15:20:19;95386.03;;;7.80
73894;BMP280;62699;50.534;12.784;2024-03-23T15:25:19;95379.50;;;7.76
73894;BMP280;62699;50.534;12.784;2024-03-23T15:30:19;95377.97;;;7.86
73894;BMP280;62699;50.534;12.784;2024-03-23T15:35:20;95382.63;;;7.80
73894;BMP280;62699;50.534;12.784;2024-03-23T15:40:23;95382.44;;;7.67
73894;BMP280;62699;50.534;12.784;2024-03-23T15:45:23;95387.56;;;7.65
73894;BMP280;62699;50.534;12.784;2024-03-23T15:50:23;95394.63;;;7.68
73894;BMP280;62699;50.534;12.784;2024-03-23T15:55:23;95389.25;;;7.68
73894;BMP280;62699;50.534;12.784;2024-03-23T16:00:23;95372.69;;;7.75
73894;BMP280;62699;50.534;12.784;2024-03-23T16:05:24;95378.34;;;7.60
73894;BMP280;62699;50.534;12.784;2024-03-23T16:10:24;95389.84;;;7.49
73894;BMP280;62699;50.534;12.784;2024-03-23T16:15:24;95384.47;;;7.49
73894;BMP280;62699;50.534;12.784;2024-03-23T16:20:24;95393.53;;;7.41
73894;BMP280;62699;50.534;12.784;2024-03-23T16:25:24;95385.03;;;7.26
73894;BMP280;62699;50.534;12.784;2024-03-23T16:30:25;95371.94;;;7.05
73894;BMP280;62699;50.534;12.784;2024-03-23T16:35:25;95381.19;;;6.99
73894;BMP280;62699;50.534;12.784;2024-03-23T16:40:25;95387.75;;;6.98
73894;BMP280;62699;50.534;12.784;2024-03-23T16:45:25;95400.41;;;6.92
73894;BMP280;62699;50.534;12.784;2024-03-23T16:50:25;95411.34;;;6.94
73894;BMP280;62699;50.534;12.784;2024-03-23T16:55:26;95408.19;;;6.84
73894;BMP280;62699;50.534;12.784;2024-03-23T17:00:26;95409.16;;;6.76
73894;BMP280;62699;50.534;12.784;2024-03-23T17:05:26;95406.50;;;6.70
73894;BMP280;62699;50.534;12.784;2024-03-23T17:10:28;95401.13;;;6.64
73894;BMP280;62699;50.534;12.784;2024-03-23T17:15:28;95393.38;;;6.50
73894;BMP280;62699;50.534;12.784;2024-03-23T17:20:28;95395.75;;;6.20
73894;BMP280;62699;50.534;12.784;2024-03-23T17:25:28;95400.03;;;5.90
73894;BMP280;62699;50.534;12.784;2024-03-23T17:30:29;95400.44;;;5.71
73894;BMP280;62699;50.534;12.784;2024-03-23T17:35:29;95388.50;;;5.56
73894;BMP280;62699;50.534;12.784;2024-03-23T17:40:30;95398.84;;;5.42
73894;BMP280;62699;50.534;12.784;2024-03-23T17:45:31;95398.56;;;5.35
73894;BMP280;62699;50.534;12.784;2024-03-23T17:50:31;95404.34;;;5.28
73894;BMP280;62699;50.534;12.784;2024-03-23T17:55:32;95402.66;;;5.25
73894;BMP280;62699;50.534;12.784;2024-03-23T18:00:32;95407.34;;;5.10
73894;BMP280;62699;50.534;12.784;2024-03-23T18:05:33;95407.47;;;4.89
73894;BMP280;62699;50.534;12.784;2024-03-23T18:10:34;95421.19;;;4.77
73894;BMP280;62699;50.534;12.784;2024-03-23T18:15:34;95422.34;;;4.70
73894;BMP280;62699;50.534;12.784;2024-03-23T18:20:34;95424.78;;;4.74
73894;BMP280;62699;50.534;12.784;2024-03-23T18:25:34;95435.78;;;4.81
73894;BMP280;62699;50.534;12.784;2024-03-23T18:30:34;95440.16;;;4.84
73894;BMP280;62699;50.534;12.784;2024-03-23T18:35:35;95459.03;;;4.81
73894;BMP280;62699;50.534;12.784;2024-03-23T18:40:35;95465.28;;;4.72
73894;BMP280;62699;50.534;12.784;2024-03-23T18:45:35;95474.03;;;4.52
73894;BMP280;62699;50.534;12.784;2024-03-23T18:50:36;95491.25;;;4.31
73894;BMP280;62699;50.534;12.784;2024-03-23T18:55:38;95480.41;;;4.14
73894;BMP280;62699;50.534;12.784;2024-03-23T19:00:38;95477.88;;;4.05
73894;BMP280;62699;50.534;12.784;2024-03-23T19:05:39;95480.25;;;4.03
73894;BMP280;62699;50.534;12.784;2024-03-23T19:10:39;95478.94;;;3.93
73894;BMP280;62699;50.534;12.784;2024-03-23T19:15:39;95465.75;;;3.84
73894;BMP280;62699;50.534;12.784;2024-03-23T19:20:40;95462.66;;;3.71
73894;BMP280;62699;50.534;12.784;2024-03-23T19:25:40;95464.53;;;3.50
73894;BMP280;62699;50.534;12.784;2024-03-23T19:30:40;95464.19;;;3.28
73894;BMP280;62699;50.534;12.784;2024-03-23T19:35:41;95472.22;;;3.13
73894;BMP280;62699;50.534;12.784;2024-03-23T19:40:41;95456.34;;;3.04
73894;BMP280;62699;50.534;12.784;2024-03-23T19:45:42;95453.69;;;3.04
73894;BMP280;62699;50.534;12.784;2024-03-23T19:50:43;95451.38;;;2.97
73894;BMP280;62699;50.534;12.784;2024-03-23T19:55:43;95455.63;;;2.89
73894;BMP280;62699;50.534;12.784;2024-03-23T20:00:43;95444.97;;;2.74
73894;BMP280;62699;50.534;12.784;2024-03-23T20:05:43;95454.03;;;2.67
73894;BMP280;62699;50.534;12.784;2024-03-23T20:10:48;95443.84;;;2.66
73894;BMP280;62699;50.534;12.784;2024-03-23T20:15:55;95448.97;;;2.55
73894;BMP280;62699;50.534;12.784;2024-03-23T20:21:04;95438.16;;;2.44
73894;BMP280;62699;50.534;12.784;2024-03-23T20:26:05;95437.22;;;2.32
73894;BMP280;62699;50.534;12.784;2024-03-23T20:31:05;95437.94;;;2.33
73894;BMP280;62699;50.534;12.784;2024-03-23T20:36:08;95441.69;;;2.26
73894;BMP280;62699;50.534;12.784;2024-03-23T20:41:08;95436.91;;;2.15
73894;BMP280;62699;50.534;12.784;2024-03-23T20:46:09;95442.66;;;2.14
73894;BMP280;62699;50.534;12.784;2024-03-23T20:51:10;95430.91;;;2.06
73894;BMP280;62699;50.534;12.784;2024-03-23T20:56:10;95430.38;;;2.02
73894;BMP280;62699;50.534;12.784;2024-03-23T21:01:11;95431.59;;;2.15
73894;BMP280;62699;50.534;12.784;2024-03-23T21:06:11;95427.81;;;2.07
73894;BMP280;62699;50.534;12.784;2024-03-23T21:11:11;95426.47;;;2.12
73894;BMP280;62699;50.534;12.784;2024-03-23T21:16:12;95411.22;;;2.21
73894;BMP280;62699;50.534;12.784;2024-03-23T21:21:12;95420.66;;;2.22
73894;BMP280;62699;50.534;12.784;2024-03-23T21:26:12;95417.47;;;2.09
73894;BMP280;62699;50.534;12.784;2024-03-23T21:31:13;95420.16;;;2.24
73894;BMP280;62699;50.534;12.784;2024-03-23T21:36:13;95416.31;;;2.10
73894;BMP280;62699;50.534;12.784;2024-03-23T21:41:13;95408.25;;;2.34
73894;BMP280;62699;50.534;12.784;2024-03-23T21:46:14;95410.31;;;2.39
73894;BMP280;62699;50.534;12.784;2024-03-23T21:51:14;95404.75;;;2.52
73894;BMP280;62699;50.534;12.784;2024-03-23T21:56:15;95404.72;;;2.66
73894;BMP280;62699;50.534;12.784;2024-03-23T22:01:15;95399.81;;;2.74
73894;BMP280;62699;50.534;12.784;2024-03-23T22:06:20;95384.84;;;2.77
73894;BMP280;62699;50.534;12.784;2024-03-23T22:11:20;95374.63;;;2.84
73894;BMP280;62699;50.534;12.784;2024-03-23T22:16:20;95380.19;;;2.86
73894;BMP280;62699;50.534;12.784;2024-03-23T22:21:20;95382.66;;;2.90
73894;BMP280;62699;50.534;12.784;2024-03-23T22:26:21;95378.25;;;2.87
73894;BMP280;62699;50.534;12.784;2024-03-23T22:31:21;95386.84;;;2.96
73894;BMP280;62699;50.534;12.784;2024-03-23T22:36:21;95376.78;;;2.86
73894;BMP280;62699;50.534;12.784;2024-03-23T22:41:22;95377.06;;;2.88
73894;BMP280;62699;50.534;12.784;2024-03-23T22:46:22;95372.69;;;2.85
73894;BMP280;62699;50.534;12.784;2024-03-23T22:51:23;95372.50;;;2.74
73894;BMP280;62699;50.534;12.784;2024-03-23T22:56:23;95380.94;;;2.72
73894;BMP280;62699;50.534;12.784;2024-03-23T23:01:23;95373.69;;;2.73
73894;BMP280;62699;50.534;12.784;2024-03-23T23:06:23;95362.97;;;2.82
73894;BMP280;62699;50.534;12.784;2024-03-23T23:11:24;95367.50;;;2.96
73894;BMP280;62699;50.534;12.784;2024-03-23T23:16:24;95362.75;;;3.00
73894;BMP280;62699;50.534;12.784;2024-03-23T23:21:24;95363.03;;;3.02
73894;BMP280;62699;50.534;12.784;2024-03-23T23:26:26;95354.31;;;3.01
73894;BMP280;62699;50.534;12.784;2024-03-23T23:31:26;95349.19;;;2.98
73894;BMP280;62699;50.534;12.784;2024-03-23T23:36:26;95342.84;;;2.95
73894;BMP280;62699;50.534;12.784;2024-03-23T23:41:26;95354.78;;;2.85
73894;BMP280;62699;50.534;12.784;2024-03-23T23:46:26;95335.03;;;2.72
73894;BMP280;62699;50.534;12.784;2024-03-23T23:51:27;95331.38;;;2.54
73894;BMP280;62699;50.534;12.784;2024-03-23T23:56:29;95332.09;;;2.40
